createdAt,value
2022-12-26T00:01:12.540Z,21.85
2022-12-26T00:03:32.209Z,22.88
2022-12-26T00:05:52.277Z,23.83
2022-12-26T00:08:12.247Z,75.30
2022-12-26T00:10:55.533Z,71.93
2022-12-26T00:13:38.207Z,30.00
2022-12-26T00:16:42.312Z,38.85
2022-12-26T00:19:02.977Z,36.28
2022-12-26T00:21:26.414Z,34.88
2022-12-26T00:23:46.753Z,45.90
2022-12-26T00:26:19.367Z,74.45
2022-12-26T00:28:39.517Z,18.43
2022-12-26T00:31:07.560Z,25.67
2022-12-26T00:33:27.768Z,37.15
2022-12-26T00:35:47.521Z,30.48
2022-12-26T00:38:07.730Z,26.95
2022-12-26T00:40:27.530Z,28.75
2022-12-26T00:42:47.885Z,29.08
2022-12-26T00:45:08.112Z,20.00
2022-12-26T00:47:28.270Z,21.38
2022-12-26T00:50:14.119Z,25.98
2022-12-26T00:52:28.446Z,30.38
2022-12-26T00:54:48.665Z,34.75
2022-12-26T00:57:08.517Z,25.27
2022-12-26T00:59:28.097Z,30.08
2022-12-26T01:01:50.354Z,20.17
2022-12-26T01:04:10.368Z,15.27
2022-12-26T01:06:30.458Z,19.30
2022-12-26T01:08:50.366Z,24.13
2022-12-26T01:11:12.791Z,19.40
2022-12-26T01:13:32.897Z,18.40
2022-12-26T01:15:53.609Z,19.05
2022-12-26T01:18:13.616Z,17.13
2022-12-26T01:20:33.974Z,15.93
2022-12-26T01:22:55.124Z,17.13
2022-12-26T01:25:15.235Z,16.45
2022-12-26T01:27:35.117Z,17.55
2022-12-26T01:29:55.863Z,19.67
2022-12-26T01:32:15.538Z,17.60
2022-12-26T01:34:35.420Z,17.75
2022-12-26T01:36:55.915Z,16.60
2022-12-26T01:39:15.952Z,18.20
2022-12-26T01:41:36.945Z,16.13
2022-12-26T01:44:04.417Z,14.05
2022-12-26T01:46:41.926Z,14.85
2022-12-26T01:49:13.328Z,17.63
2022-12-26T01:51:38.212Z,17.02
2022-12-26T01:54:40.857Z,15.88
2022-12-26T01:56:42.555Z,16.70
2022-12-26T01:59:08.851Z,18.83
2022-12-26T02:01:32.334Z,16.25
2022-12-26T02:04:10.745Z,14.80
2022-12-26T02:06:32.235Z,15.38
2022-12-26T02:08:53.386Z,15.93
2022-12-26T02:11:18.533Z,17.30
2022-12-26T02:13:39.560Z,17.10
2022-12-26T02:16:01.140Z,16.83
2022-12-26T02:18:20.967Z,20.10
2022-12-26T02:20:51.318Z,19.15
2022-12-26T02:23:52.293Z,18.05
2022-12-26T02:26:47.618Z,22.02
2022-12-26T02:29:47.126Z,21.80
2022-12-26T02:32:36.333Z,22.23
2022-12-26T02:35:08.341Z,22.23
2022-12-26T02:37:47.047Z,20.10
2022-12-26T02:40:42.041Z,38.40
2022-12-26T02:43:30.107Z,30.63
2022-12-26T02:46:27.880Z,22.70
2022-12-26T02:49:21.264Z,23.33
2022-12-26T02:52:06.695Z,23.13
2022-12-26T02:55:15.482Z,19.80
2022-12-26T02:58:10.455Z,17.10
2022-12-26T03:00:53.079Z,18.52
2022-12-26T03:03:42.786Z,19.70
2022-12-26T03:06:30.012Z,17.52
2022-12-26T03:09:32.542Z,19.77
2022-12-26T03:12:18.915Z,15.40
2022-12-26T03:14:47.509Z,13.75
2022-12-26T03:17:19.644Z,16.08
2022-12-26T03:19:57.565Z,12.80
2022-12-26T03:22:31.188Z,15.02
2022-12-26T03:25:11.960Z,14.30
2022-12-26T03:27:33.334Z,13.30
2022-12-26T03:30:11.704Z,13.38
2022-12-26T03:32:42.543Z,14.35
2022-12-26T03:35:12.663Z,14.55
2022-12-26T03:37:52.114Z,12.65
2022-12-26T03:40:59.001Z,12.57
2022-12-26T03:43:51.272Z,12.38
2022-12-26T03:47:03.323Z,13.20
2022-12-26T03:49:51.858Z,13.35
2022-12-26T03:52:57.645Z,14.70
2022-12-26T03:55:45.492Z,13.57
2022-12-26T03:58:36.087Z,12.68
2022-12-26T04:01:17.738Z,13.73
2022-12-26T04:03:59.906Z,13.45
2022-12-26T04:06:45.132Z,12.70
2022-12-26T04:09:37.129Z,14.05
2022-12-26T04:12:18.361Z,15.60
2022-12-26T04:15:09.464Z,16.27
2022-12-26T04:18:00.617Z,15.32
2022-12-26T04:20:35.049Z,15.38
2022-12-26T04:23:19.179Z,17.10
2022-12-26T04:26:23.589Z,17.55
2022-12-26T04:29:01.572Z,18.13
2022-12-26T04:32:03.885Z,17.83
2022-12-26T04:34:59.819Z,20.90
2022-12-26T04:37:44.110Z,16.90
2022-12-26T04:40:28.616Z,16.02
2022-12-26T04:43:48.492Z,17.65
2022-12-26T04:45:48.475Z,15.32
2022-12-26T04:48:44.855Z,13.15
2022-12-26T04:51:05.786Z,12.18
2022-12-26T04:53:25.503Z,13.88
2022-12-26T04:55:46.139Z,12.40
2022-12-26T04:58:05.972Z,12.75
2022-12-26T05:00:27.421Z,13.32
2022-12-26T05:03:06.026Z,12.35
2022-12-26T05:05:44.329Z,12.57
2022-12-26T05:08:23.156Z,12.82
2022-12-26T05:10:43.236Z,12.18
2022-12-26T05:13:03.399Z,11.55
2022-12-26T05:15:24.222Z,11.95
2022-12-26T05:18:02.875Z,14.73
2022-12-26T05:20:49.451Z,13.70
2022-12-26T05:23:43.440Z,14.93
2022-12-26T05:26:23.207Z,12.13
2022-12-26T05:28:43.438Z,12.70
2022-12-26T05:31:04.642Z,11.80
2022-12-26T05:33:43.183Z,12.25
2022-12-26T05:36:03.956Z,13.05
2022-12-26T05:38:23.616Z,13.65
2022-12-26T05:40:43.771Z,13.27
2022-12-26T05:43:03.582Z,12.85
2022-12-26T05:45:23.929Z,20.48
2022-12-26T05:47:48.359Z,21.95
2022-12-26T05:50:11.453Z,25.00
2022-12-26T05:52:31.256Z,25.13
2022-12-26T05:54:50.981Z,25.05
2022-12-26T05:57:11.084Z,23.98
2022-12-26T05:59:31.133Z,24.50
2022-12-26T06:01:51.031Z,23.05
2022-12-26T06:04:11.006Z,25.35
2022-12-26T06:06:30.685Z,24.05
2022-12-26T06:08:51.866Z,19.60
2022-12-26T06:11:13.119Z,18.33
2022-12-26T06:13:34.011Z,18.60
2022-12-26T06:15:53.924Z,21.83
2022-12-26T06:18:13.961Z,17.67
2022-12-26T06:20:33.843Z,17.35
2022-12-26T06:22:54.014Z,21.70
2022-12-26T06:25:14.322Z,83.78
2022-12-26T06:27:34.707Z,61.50
2022-12-26T06:29:54.818Z,27.27
2022-12-26T06:32:14.720Z,31.25
2022-12-26T06:34:34.788Z,20.30
2022-12-26T06:36:55.516Z,20.10
2022-12-26T06:39:15.738Z,22.60
2022-12-26T06:41:35.909Z,19.63
2022-12-26T06:43:55.679Z,21.08
2022-12-26T06:46:19.109Z,19.52
2022-12-26T06:48:39.158Z,20.95
2022-12-26T06:51:03.942Z,20.02
2022-12-26T06:53:26.799Z,19.80
2022-12-26T06:55:47.131Z,16.23
2022-12-26T06:58:06.692Z,15.65
2022-12-26T07:00:26.229Z,16.33
2022-12-26T07:02:50.033Z,14.75
2022-12-26T07:05:09.986Z,15.15
2022-12-26T07:07:29.997Z,22.08
2022-12-26T07:09:49.494Z,21.77
2022-12-26T07:12:09.026Z,25.40
2022-12-26T07:14:28.748Z,18.00
2022-12-26T07:16:49.013Z,19.98
2022-12-26T07:19:11.520Z,12.20
2022-12-26T07:21:37.999Z,11.02
2022-12-26T07:24:00.476Z,11.90
2022-12-26T07:26:21.472Z,16.17
2022-12-26T07:28:41.507Z,14.18
2022-12-26T07:31:01.936Z,12.30
2022-12-26T07:33:21.695Z,10.43
2022-12-26T07:35:41.740Z,12.88
2022-12-26T07:38:01.537Z,14.38
2022-12-26T07:40:21.464Z,14.13
2022-12-26T07:42:41.005Z,15.95
2022-12-26T07:45:00.539Z,14.02
2022-12-26T07:47:20.472Z,14.70
2022-12-26T07:49:40.103Z,17.38
2022-12-26T07:52:01.195Z,13.00
2022-12-26T07:54:20.854Z,13.27
2022-12-26T07:56:42.505Z,13.80
2022-12-26T07:59:02.400Z,11.40
2022-12-26T08:01:22.615Z,13.18
2022-12-26T08:03:42.798Z,18.35
2022-12-26T08:06:03.046Z,19.70
2022-12-26T08:08:22.899Z,15.68
2022-12-26T08:10:42.706Z,26.05
2022-12-26T08:13:02.662Z,16.83
2022-12-26T08:15:22.865Z,19.40
2022-12-26T08:17:42.770Z,21.30
2022-12-26T08:20:02.908Z,24.55
2022-12-26T08:22:22.936Z,19.63
2022-12-26T08:24:43.279Z,20.55
2022-12-26T08:27:04.788Z,19.90
2022-12-26T08:29:24.753Z,22.88
2022-12-26T08:31:44.964Z,18.60
2022-12-26T08:34:04.585Z,20.83
2022-12-26T08:36:24.474Z,20.25
2022-12-26T08:38:44.124Z,23.98
2022-12-26T08:41:04.730Z,17.80
2022-12-26T08:43:53.260Z,17.80
2022-12-26T08:46:08.723Z,15.40
2022-12-26T08:48:29.813Z,18.33
2022-12-26T08:50:55.593Z,15.55
2022-12-26T08:53:15.779Z,17.73
2022-12-26T08:55:35.952Z,17.90
2022-12-26T08:57:55.923Z,20.13
2022-12-26T09:00:17.191Z,26.48
2022-12-26T09:02:37.493Z,23.70
2022-12-26T09:04:57.514Z,27.33
2022-12-26T09:07:17.556Z,29.55
2022-12-26T09:09:37.983Z,26.70
2022-12-26T09:12:27.262Z,26.17
2022-12-26T09:14:50.057Z,35.75
2022-12-26T09:17:38.288Z,26.77
2022-12-26T09:19:58.248Z,27.08
2022-12-26T09:22:36.757Z,27.00
2022-12-26T09:24:56.242Z,31.02
2022-12-26T09:27:16.682Z,27.15
2022-12-26T09:29:39.504Z,20.98
2022-12-26T09:31:59.622Z,22.52
2022-12-26T09:34:19.347Z,17.98
2022-12-26T09:36:39.181Z,21.15
2022-12-26T09:38:59.754Z,18.00
2022-12-26T09:41:43.790Z,14.95
2022-12-26T09:44:34.511Z,18.67
2022-12-26T09:47:10.191Z,15.02
2022-12-26T09:49:46.790Z,14.40
2022-12-26T09:52:15.188Z,15.30
2022-12-26T09:54:40.150Z,13.52
2022-12-26T09:57:11.266Z,10.48
2022-12-26T09:59:44.400Z,12.38
2022-12-26T10:02:04.350Z,12.40
2022-12-26T10:04:30.219Z,10.05
2022-12-26T10:07:16.233Z,11.07
2022-12-26T10:10:02.231Z,9.23
2022-12-26T10:12:52.456Z,12.95
2022-12-26T10:15:26.724Z,9.43
2022-12-26T10:18:12.485Z,9.73
2022-12-26T10:20:44.287Z,9.05
2022-12-26T10:23:16.107Z,9.93
2022-12-26T10:25:51.600Z,9.18
2022-12-26T10:28:47.127Z,9.13
2022-12-26T10:31:19.171Z,10.32
2022-12-26T10:33:50.389Z,10.38
2022-12-26T10:36:20.634Z,10.20
2022-12-26T10:38:43.698Z,9.65
2022-12-26T10:41:17.871Z,9.63
2022-12-26T10:43:44.418Z,9.15
2022-12-26T10:46:29.867Z,10.88
2022-12-26T10:48:50.101Z,9.52
2022-12-26T10:51:12.132Z,8.57
2022-12-26T10:53:41.014Z,8.88
2022-12-26T10:56:02.659Z,8.13
2022-12-26T10:58:29.475Z,9.00
2022-12-26T11:00:49.447Z,8.57
2022-12-26T11:03:11.020Z,7.22
2022-12-26T11:06:05.852Z,8.65
2022-12-26T11:08:16.523Z,9.45
2022-12-26T11:10:36.762Z,8.90
2022-12-26T11:13:02.041Z,8.20
2022-12-26T11:15:39.892Z,7.55
2022-12-26T11:18:21.759Z,7.97
2022-12-26T11:20:42.383Z,7.50
2022-12-26T11:23:32.108Z,7.47
2022-12-26T11:25:59.772Z,8.00
2022-12-26T11:28:25.886Z,8.38
2022-12-26T11:30:48.050Z,8.15
2022-12-26T11:33:17.545Z,9.35
2022-12-26T11:35:45.615Z,8.63
2022-12-26T11:38:12.145Z,8.65
2022-12-26T11:40:38.562Z,7.47
2022-12-26T11:43:02.563Z,8.70
2022-12-26T11:45:26.868Z,6.80
2022-12-26T11:47:47.133Z,7.13
2022-12-26T11:50:20.640Z,7.45
2022-12-26T11:55:32.854Z,7.35
2022-12-26T11:58:20.184Z,7.55
2022-12-26T12:01:06.738Z,7.63
2022-12-26T12:03:30.715Z,7.88
2022-12-26T12:06:16.096Z,7.55
2022-12-26T12:08:52.391Z,8.02
2022-12-26T12:11:40.216Z,8.00
2022-12-26T12:14:02.874Z,8.07
2022-12-26T12:16:47.197Z,7.60
2022-12-26T12:19:55.143Z,7.97
2022-12-26T12:22:47.679Z,8.52
2022-12-26T12:25:26.766Z,8.23
2022-12-26T12:28:07.883Z,7.85
2022-12-26T12:30:45.222Z,8.18
2022-12-26T12:33:33.427Z,7.60
2022-12-26T12:36:07.901Z,8.68
2022-12-26T12:38:32.356Z,7.15
2022-12-26T12:41:16.376Z,6.93
2022-12-26T12:43:49.637Z,7.85
2022-12-26T12:46:40.980Z,8.10
2022-12-26T12:49:23.966Z,7.93
2022-12-26T12:52:10.330Z,7.97
2022-12-26T12:55:00.018Z,8.20
2022-12-26T12:57:42.852Z,9.70
2022-12-26T13:00:12.541Z,7.70
2022-12-26T13:02:46.032Z,7.88
2022-12-26T13:07:46.781Z,7.95
2022-12-26T13:10:22.210Z,8.70
2022-12-26T13:12:44.551Z,9.18
2022-12-26T13:15:09.110Z,9.45
2022-12-26T13:17:34.305Z,9.70
2022-12-26T13:20:02.445Z,8.93
2022-12-26T13:22:50.763Z,9.23
2022-12-26T13:25:11.420Z,10.13
2022-12-26T13:27:36.132Z,10.15
2022-12-26T13:29:56.443Z,10.70
2022-12-26T13:32:28.318Z,11.50
2022-12-26T13:34:49.139Z,9.05
2022-12-26T13:37:31.643Z,9.18
2022-12-26T13:39:52.281Z,8.93
2022-12-26T13:42:30.966Z,8.75
2022-12-26T13:44:53.715Z,7.65
2022-12-26T13:47:36.769Z,7.22
2022-12-26T13:49:56.751Z,7.78
2022-12-26T13:52:24.703Z,8.77
2022-12-26T13:54:47.880Z,8.30
2022-12-26T13:57:34.137Z,12.80
2022-12-26T14:00:13.775Z,9.60
2022-12-26T14:03:18.012Z,8.90
2022-12-26T14:06:23.194Z,9.57
2022-12-26T14:09:30.715Z,9.02
2022-12-26T14:12:05.750Z,8.48
2022-12-26T14:14:39.786Z,8.10
2022-12-26T14:17:38.166Z,7.82
2022-12-26T14:20:24.959Z,9.55
2022-12-26T14:22:59.622Z,7.40
2022-12-26T14:25:50.412Z,7.07
2022-12-26T14:28:31.873Z,5.57
2022-12-26T14:31:12.372Z,5.68
2022-12-26T14:33:37.567Z,8.98
2022-12-26T14:36:19.062Z,7.93
2022-12-26T14:39:03.123Z,7.20
2022-12-26T14:41:41.818Z,5.43
2022-12-26T14:44:35.922Z,4.40
2022-12-26T14:46:59.530Z,6.03
2022-12-26T14:49:35.217Z,6.18
2022-12-26T14:52:24.503Z,6.32
2022-12-26T14:54:50.970Z,6.72
2022-12-26T14:57:37.407Z,7.10
2022-12-26T15:00:30.660Z,5.65
2022-12-26T15:03:00.923Z,7.03
2022-12-26T15:05:32.467Z,6.47
2022-12-26T15:08:29.392Z,7.65
2022-12-26T15:11:10.137Z,6.15
2022-12-26T15:13:42.224Z,6.35
2022-12-26T15:16:32.761Z,6.10
2022-12-26T15:19:01.841Z,6.00
2022-12-26T15:21:49.625Z,5.63
2022-12-26T15:25:16.931Z,5.90
2022-12-26T15:27:16.780Z,6.10
2022-12-26T15:30:13.458Z,5.30
2022-12-26T15:33:12.027Z,5.43
2022-12-26T15:35:43.837Z,5.68
2022-12-26T15:38:31.711Z,5.45
2022-12-26T15:41:15.661Z,3.90
2022-12-26T15:43:54.006Z,5.53
2022-12-26T15:46:29.139Z,6.00
2022-12-26T15:49:07.457Z,4.82
2022-12-26T15:51:56.458Z,4.28
2022-12-26T15:54:35.072Z,5.00
2022-12-26T15:57:15.433Z,4.57
2022-12-26T16:00:04.731Z,7.32
2022-12-26T16:02:27.675Z,5.18
2022-12-26T16:04:51.397Z,5.68
2022-12-26T16:08:03.685Z,5.68
2022-12-26T16:10:33.334Z,5.00
2022-12-26T16:12:58.336Z,6.07
2022-12-26T16:15:32.864Z,4.75
2022-12-26T16:17:52.765Z,6.65
2022-12-26T16:20:50.628Z,7.70
2022-12-26T16:23:20.017Z,5.38
2022-12-26T16:25:40.265Z,5.18
2022-12-26T16:28:00.700Z,4.63
2022-12-26T16:30:27.285Z,4.50
2022-12-26T16:32:48.065Z,5.63
2022-12-26T16:35:24.125Z,4.90
2022-12-26T16:37:44.405Z,5.10
2022-12-26T16:40:27.498Z,5.10
2022-12-26T16:43:04.165Z,4.30
2022-12-26T16:45:25.590Z,4.85
2022-12-26T16:47:46.716Z,4.20
2022-12-26T16:50:07.224Z,5.93
2022-12-26T16:52:45.612Z,6.68
2022-12-26T16:55:35.290Z,6.32
2022-12-26T16:57:57.945Z,6.15
2022-12-26T17:00:20.497Z,4.90
2022-12-26T17:02:49.591Z,4.60
2022-12-26T17:05:26.800Z,5.53
2022-12-26T17:07:49.038Z,6.05
2022-12-26T17:10:34.340Z,7.13
2022-12-26T17:12:57.133Z,16.33
2022-12-26T17:15:26.622Z,7.88
2022-12-26T17:17:46.941Z,6.50
2022-12-26T17:20:22.139Z,7.45
2022-12-26T17:22:42.181Z,6.22
2022-12-26T17:25:19.762Z,6.82
2022-12-26T17:27:39.567Z,5.15
2022-12-26T17:30:17.955Z,7.03
2022-12-26T17:32:43.805Z,6.70
2022-12-26T17:35:13.602Z,3.85
2022-12-26T17:37:34.027Z,5.07
2022-12-26T17:40:29.494Z,4.28
2022-12-26T17:42:53.104Z,5.07
2022-12-26T17:45:19.629Z,5.45
2022-12-26T17:47:39.542Z,5.90
2022-12-26T17:49:59.972Z,4.07
2022-12-26T17:52:24.528Z,7.10
2022-12-26T17:54:46.169Z,11.48
2022-12-26T17:57:16.172Z,5.55
2022-12-26T17:59:36.347Z,5.95
2022-12-26T18:01:56.337Z,4.97
2022-12-26T18:04:16.418Z,11.90
2022-12-26T18:06:36.281Z,11.85
2022-12-26T18:08:57.638Z,8.88
2022-12-26T18:11:17.533Z,5.25
2022-12-26T18:13:37.796Z,8.10
2022-12-26T18:16:29.969Z,9.25
2022-12-26T18:18:49.787Z,6.78
2022-12-26T18:21:17.172Z,5.32
2022-12-26T18:23:38.132Z,6.20
2022-12-26T18:26:06.637Z,12.07
2022-12-26T18:28:27.406Z,7.35
2022-12-26T18:30:47.371Z,4.63
2022-12-26T18:33:10.260Z,5.70
2022-12-26T18:35:31.829Z,4.35
2022-12-26T18:37:52.860Z,4.63
2022-12-26T18:40:34.246Z,5.38
2022-12-26T18:42:54.572Z,4.20
2022-12-26T18:45:14.819Z,5.68
2022-12-26T18:47:34.517Z,5.57
2022-12-26T18:49:54.209Z,6.13
2022-12-26T18:52:17.871Z,3.63
2022-12-26T18:54:38.494Z,5.50
2022-12-26T18:56:58.725Z,6.15
2022-12-26T18:59:18.689Z,5.40
2022-12-26T19:01:38.510Z,6.40
2022-12-26T19:03:58.941Z,3.80
2022-12-26T19:06:22.871Z,6.63
2022-12-26T19:08:42.961Z,5.55
2022-12-26T19:11:02.938Z,5.07
2022-12-26T19:13:22.977Z,5.55
2022-12-26T19:15:47.084Z,4.82
2022-12-26T19:18:07.016Z,8.40
2022-12-26T19:20:27.526Z,5.43
2022-12-26T19:22:48.841Z,6.38
2022-12-26T19:25:09.054Z,5.97
2022-12-26T19:27:29.423Z,7.88
2022-12-26T19:29:49.546Z,5.55
2022-12-26T19:32:09.299Z,6.28
2022-12-26T19:34:29.314Z,17.13
2022-12-26T19:36:49.720Z,11.13
2022-12-26T19:39:09.679Z,10.88
2022-12-26T19:41:30.271Z,9.52
2022-12-26T19:43:58.705Z,9.60
2022-12-26T19:46:19.585Z,7.60
2022-12-26T19:48:39.420Z,6.50
2022-12-26T19:51:00.985Z,6.07
2022-12-26T19:53:20.816Z,5.65
2022-12-26T19:55:40.937Z,7.97
2022-12-26T19:58:00.545Z,7.97
2022-12-26T20:00:20.083Z,6.70
2022-12-26T20:02:40.515Z,9.25
2022-12-26T20:05:00.302Z,8.55
2022-12-26T20:07:20.268Z,6.10
2022-12-26T20:09:40.618Z,6.38
2022-12-26T20:12:02.311Z,10.00
2022-12-26T20:14:25.418Z,9.48
2022-12-26T20:19:28.252Z,25.90
2022-12-26T20:21:48.988Z,12.32
2022-12-26T20:24:10.977Z,10.65
2022-12-26T20:26:31.893Z,9.95
2022-12-26T20:28:55.411Z,9.40
2022-12-26T20:31:20.742Z,29.20
2022-12-26T20:33:43.706Z,8.10
2022-12-26T20:36:18.747Z,8.95
2022-12-26T20:38:39.075Z,7.47
2022-12-26T20:40:58.919Z,5.70
2022-12-26T20:43:19.982Z,4.32
2022-12-26T20:45:39.682Z,3.70
2022-12-26T20:47:59.935Z,6.88
2022-12-26T20:50:19.740Z,4.88
2022-12-26T20:52:39.435Z,5.68
2022-12-26T20:54:59.622Z,5.47
2022-12-26T20:57:19.679Z,6.80
2022-12-26T20:59:39.475Z,4.90
2022-12-26T21:01:59.626Z,5.10
2022-12-26T21:04:21.589Z,5.65
2022-12-26T21:06:44.777Z,5.88
2022-12-26T21:09:06.073Z,5.53
2022-12-26T21:11:32.384Z,9.50
2022-12-26T21:13:55.735Z,5.82
2022-12-26T21:18:47.699Z,4.45
2022-12-26T21:21:11.027Z,5.43
2022-12-26T21:23:30.831Z,5.07
2022-12-26T21:25:50.927Z,7.70
2022-12-26T21:28:10.493Z,5.47
2022-12-26T21:30:30.632Z,4.97
2022-12-26T21:32:51.253Z,5.70
2022-12-26T21:35:11.732Z,5.47
2022-12-26T21:37:51.003Z,6.90
2022-12-26T21:40:11.458Z,7.88
2022-12-26T21:42:31.094Z,6.90
2022-12-26T21:44:50.686Z,6.70
2022-12-26T21:47:10.600Z,6.45
2022-12-26T21:49:30.526Z,7.97
2022-12-26T21:51:50.745Z,8.00
2022-12-26T21:54:28.662Z,7.85
2022-12-26T21:56:48.504Z,8.57
2022-12-26T21:59:27.460Z,8.20
2022-12-26T22:01:47.677Z,7.75
2022-12-26T22:04:20.457Z,8.35
2022-12-26T22:06:41.547Z,6.67
2022-12-26T22:09:01.976Z,9.05
2022-12-26T22:11:40.164Z,6.40
2022-12-26T22:13:59.711Z,7.63
2022-12-26T22:16:19.720Z,17.50
2022-12-26T22:18:42.260Z,7.68
2022-12-26T22:21:08.614Z,7.47
2022-12-26T22:23:28.770Z,69.72
2022-12-26T22:25:54.176Z,7.43
2022-12-26T22:28:16.532Z,12.38
2022-12-26T22:30:47.118Z,9.45
2022-12-26T22:33:07.285Z,7.68
2022-12-26T22:35:27.394Z,7.85
2022-12-26T22:37:47.167Z,7.05
2022-12-26T22:40:36.752Z,8.10
2022-12-26T22:42:56.843Z,7.00
2022-12-26T22:45:16.729Z,7.03
2022-12-26T22:47:36.683Z,6.82
2022-12-26T22:49:56.389Z,7.53
2022-12-26T22:52:16.373Z,6.35
2022-12-26T22:54:36.358Z,5.38
2022-12-26T22:56:56.161Z,6.18
2022-12-26T22:59:41.205Z,6.10
2022-12-26T23:01:55.942Z,6.70
2022-12-26T23:04:16.220Z,5.25
2022-12-26T23:06:36.539Z,5.20
2022-12-26T23:09:00.191Z,6.35
2022-12-26T23:11:21.510Z,6.75
2022-12-26T23:13:41.623Z,6.57
2022-12-26T23:16:19.047Z,5.45
2022-12-26T23:19:10.719Z,6.60
2022-12-26T23:21:44.223Z,5.45
2022-12-26T23:24:14.028Z,5.80
2022-12-26T23:26:34.478Z,5.07
2022-12-26T23:29:13.005Z,5.47
2022-12-26T23:31:32.566Z,4.82
2022-12-26T23:33:52.727Z,4.88
2022-12-26T23:36:12.207Z,4.45
2022-12-26T23:38:31.943Z,4.65
2022-12-26T23:40:52.270Z,5.63
2022-12-26T23:43:12.462Z,6.07
2022-12-26T23:45:32.562Z,5.55
2022-12-26T23:47:52.297Z,5.13
2022-12-26T23:50:17.368Z,5.82
2022-12-26T23:52:37.597Z,4.55
2022-12-26T23:54:57.846Z,4.53
2022-12-26T23:57:17.502Z,4.63
2022-12-26T23:59:37.687Z,5.43
